Time;durP1;ratioP1;P1;durP2;ratioP2;P2;SDS_P1;SDS_P2;PMS_P1;PMS_P2;Temp;Humidity;BMP_temperature;BMP_pressure;BME280_temperature;BME280_humidity;BME280_pressure;Samples;Min_cycle;Max_cycle;Signal;HPM_P1;HPM_P2
2021/04/19 00:00:12;;;;;;;3.58;2.40;;;;;;;7.08;47.82;101056.44;4840533;29;20034;-77
2021/04/19 00:02:39;;;;;;;3.53;3.33;;;;;;;7.01;47.94;101059.25;4835385;29;20106;-80
2021/04/19 00:05:07;;;;;;;2.67;2.47;;;;;;;6.99;47.93;101055.91;4829671;29;20125;-76
2021/04/19 00:07:32;;;;;;;2.53;2.33;;;;;;;6.98;48.00;101054.28;4845808;29;20030;-79
2021/04/19 00:10:00;;;;;;;2.55;2.35;;;;;;;6.92;48.51;101056.00;4844614;29;20038;-77
2021/04/19 00:12:26;;;;;;;2.45;2.25;;;;;;;6.92;48.07;101056.00;4829310;29;20030;-77
2021/04/19 00:14:51;;;;;;;1.90;1.80;;;;;;;6.84;48.72;101052.75;4848554;29;20045;-80
2021/04/19 00:17:17;;;;;;;3.78;3.45;;;;;;;6.79;48.42;101046.09;4814905;29;20034;-80
2021/04/19 00:19:42;;;;;;;1.55;1.55;;;;;;;6.73;48.53;101041.56;4826402;29;20063;-81
2021/04/19 00:22:08;;;;;;;2.25;2.15;;;;;;;6.70;48.14;101042.03;4841559;29;20044;-77
2021/04/19 00:24:36;;;;;;;4.88;1.55;;;;;;;6.74;48.37;101043.22;4844642;29;20029;-79
2021/04/19 00:27:01;;;;;;;1.52;1.42;;;;;;;6.66;48.50;101035.38;4833680;29;20044;-79
2021/04/19 00:29:27;;;;;;;1.63;1.52;;;;;;;6.67;48.93;101047.06;4816833;29;20242;-80
2021/04/19 00:31:57;;;;;;;2.20;2.10;;;;;;;6.57;49.18;101042.13;4815460;29;20038;-78
2021/04/19 00:34:25;;;;;;;3.08;2.88;;;;;;;6.44;49.15;101029.53;4814380;29;20036;-79
2021/04/19 00:36:53;;;;;;;7.70;5.13;;;;;;;6.46;49.99;101035.56;4831878;29;20040;-79
2021/04/19 00:39:19;;;;;;;3.90;2.90;;;;;;;6.47;50.12;101040.78;4816889;29;20022;-78
2021/04/19 00:41:54;;;;;;;3.63;3.33;;;;;;;6.39;50.77;101024.75;4826900;29;20108;-79
2021/04/19 00:44:20;;;;;;;3.40;3.20;;;;;;;6.39;50.47;101030.19;4834489;29;20060;-78
2021/04/19 00:46:48;;;;;;;5.55;3.13;;;;;;;6.30;50.48;101026.09;4837826;29;20041;-82
2021/04/19 00:49:24;;;;;;;2.22;2.00;;;;;;;6.35;50.78;101034.41;4849565;29;20030;-80
2021/04/19 00:51:50;;;;;;;;;;;;;;;6.36;50.59;101041.50;4830044;29;20839;-81
2021/04/19 00:54:56;;;;;;;1.77;1.67;;;;;;;6.17;50.62;101010.75;4828891;29;19913;-81
2021/04/19 00:57:22;;;;;;;2.88;2.63;;;;;;;6.07;50.57;101004.97;4832287;29;20396;-81
2021/04/19 01:00:00;;;;;;;;;;;;;;;;;;;;;
2021/04/19 01:02:41;;;;;;;3.35;2.97;;;;;;;6.01;50.99;101001.25;4846536;29;20114;-80
2021/04/19 01:05:13;;;;;;;2.10;1.92;;;;;;;6.19;51.04;101035.81;4832267;29;20030;-80
2021/04/19 01:07:41;;;;;;;2.53;2.42;;;;;;;6.04;51.30;101006.25;4831159;29;20041;-82
2021/04/19 01:10:15;;;;;;;3.03;2.72;;;;;;;5.94;51.48;100997.75;4829543;29;20034;-82
2021/04/19 01:13:04;;;;;;;1.90;1.65;;;;;;;5.87;51.32;100984.25;4833618;29;20062;-79
2021/04/19 01:15:30;;;;;;;1.67;1.58;;;;;;;6.07;51.37;101016.66;4832425;29;20030;-80
2021/04/19 01:17:55;;;;;;;2.45;2.28;;;;;;;5.92;51.74;100997.13;4838279;29;20099;-82
2021/04/19 01:20:24;;;;;;;3.33;2.53;;;;;;;5.79;51.92;100989.09;4822820;29;20034;-80
2021/04/19 01:23:00;;;;;;;3.72;3.42;;;;;;;5.81;52.51;100989.72;4834280;29;20030;-80
2021/04/19 01:25:28;;;;;;;7.72;3.80;;;;;;;5.77;53.08;100982.00;4840565;29;20026;-81
2021/04/19 01:28:07;;;;;;;3.80;2.42;;;;;;;5.86;52.31;100998.03;4848610;29;20026;-80
2021/04/19 01:30:40;;;;;;;2.60;2.40;;;;;;;5.91;52.54;101003.63;4835292;29;20006;-82
2021/04/19 01:33:09;;;;;;;1.65;1.60;;;;;;;5.68;52.71;100975.19;4839376;29;20045;-78
2021/04/19 01:35:42;;;;;;;3.40;3.10;;;;;;;5.65;52.64;100970.22;4826821;29;20025;-80
2021/04/19 01:38:31;;;;;;;;;;;;;;;;;;;;;
2021/04/19 01:41:02;;;;;;;2.10;2.00;;;;;;;5.72;53.08;100990.00;4848528;29;20093;-80
2021/04/19 01:43:30;;;;;;;2.20;2.05;;;;;;;5.78;53.41;101001.81;4828768;29;20067;-79
2021/04/19 01:45:56;;;;;;;2.70;2.58;;;;;;;5.56;53.76;100966.09;4848162;29;20105;-79
2021/04/19 01:48:23;;;;;;;4.03;3.42;;;;;;;5.59;53.56;100981.91;4835148;29;20105;-80
2021/04/19 01:50:51;;;;;;;2.45;2.35;;;;;;;5.50;53.82;100961.53;4830546;29;20037;-80
2021/04/19 01:53:23;;;;;;;3.38;2.72;;;;;;;5.45;53.89;100958.63;4833468;29;20106;-80
2021/04/19 01:55:49;;;;;;;2.90;2.72;;;;;;;5.66;54.47;100999.00;4830425;29;20030;-79
2021/04/19 01:58:18;;;;;;;2.60;2.50;;;;;;;5.57;54.00;100995.72;4849322;29;20358;-79
2021/04/19 02:00:51;;;;;;;2.60;2.50;;;;;;;5.60;54.05;101002.59;4850270;29;20086;-78
2021/04/19 02:03:33;;;;;;;2.60;2.50;;;;;;;5.46;54.05;100984.72;4832618;29;20049;-79
2021/04/19 02:06:18;;;;;;;2.60;2.47;;;;;;;5.52;54.19;100990.13;4851894;29;20018;-79
2021/04/19 02:09:01;;;;;;;3.63;3.40;;;;;;;5.41;53.82;100977.25;4840348;29;20026;-78
2021/04/19 02:11:41;;;;;;;1.70;1.60;;;;;;;5.45;54.40;100992.03;4837611;29;20081;-78
2021/04/19 02:14:15;;;;;;;1.80;1.70;;;;;;;5.42;54.12;100985.16;4854649;29;20060;-78
2021/04/19 02:17:18;;;;;;;3.78;3.47;;;;;;;5.40;54.65;100989.13;4838802;29;20022;-79
2021/04/19 02:20:04;;;;;;;5.20;4.80;;;;;;;5.34;55.92;100988.13;4840557;29;20434;-78
2021/04/19 02:22:40;;;;;;;7.25;6.55;;;;;;;5.15;56.18;100965.50;4851417;29;20104;-77
2021/04/19 02:25:19;;;;;;;6.72;6.22;;;;;;;5.22;56.92;100987.16;4849216;29;20080;-78
2021/04/19 02:27:57;;;;;;;4.60;4.30;;;;;;;5.10;56.00;100970.75;4825505;29;20520;-79
2021/04/19 02:30:30;;;;;;;3.65;3.45;;;;;;;5.07;56.34;100974.72;4842783;29;20053;-77
2021/04/19 02:32:56;;;;;;;4.70;4.38;;;;;;;5.04;56.85;100969.72;4828197;29;20029;-76
2021/04/19 02:35:24;;;;;;;5.40;4.00;;;;;;;5.00;56.69;100965.78;4815049;29;20125;-77
2021/04/19 02:37:52;;;;;;;4.65;4.35;;;;;;;4.97;56.30;100963.50;4841263;29;20030;-76
2021/04/19 02:40:18;;;;;;;3.83;3.63;;;;;;;5.02;57.32;100985.38;4826412;29;20022;-77
2021/04/19 02:42:48;;;;;;;4.60;3.97;;;;;;;5.00;56.22;100979.34;4835893;29;20042;-74
2021/04/19 02:45:15;;;;;;;3.03;2.25;;;;;;;4.96;56.31;100978.09;4841269;29;20034;-76
2021/04/19 02:47:48;;;;;;;3.28;3.08;;;;;;;4.86;57.12;100972.31;4829303;29;20022;-78
2021/04/19 02:50:16;;;;;;;3.10;2.88;;;;;;;4.92;56.36;100982.31;4832085;29;20033;-78
2021/04/19 02:52:43;;;;;;;1.73;1.63;;;;;;;4.89;56.50;100969.16;4824914;29;20118;-78
2021/04/19 02:55:10;;;;;;;2.60;2.40;;;;;;;4.89;56.18;100970.00;4842303;29;20022;-78
2021/04/19 02:57:44;;;;;;;2.25;2.15;;;;;;;4.86;57.22;100966.88;4846244;29;20048;-78
2021/04/19 03:00:10;;;;;;;2.15;2.05;;;;;;;4.84;56.47;100971.69;4842834;29;20022;-78
2021/04/19 03:02:36;;;;;;;1.65;1.55;;;;;;;4.79;56.74;100960.66;4831692;29;20054;-78
2021/04/19 03:05:06;;;;;;;3.67;3.47;;;;;;;4.76;56.27;100969.22;4844858;29;20026;-77
2021/04/19 03:07:39;;;;;;;3.20;3.00;;;;;;;4.71;56.50;100978.00;4842490;29;20042;-78
2021/04/19 03:10:11;;;;;;;3.15;2.85;;;;;;;4.66;57.25;100975.94;4830134;29;20016;-78
2021/04/19 03:12:41;;;;;;;3.30;3.10;;;;;;;4.64;56.56;100977.19;4842234;29;20117;-77
2021/04/19 03:15:12;;;;;;;5.72;3.65;;;;;;;4.54;57.39;100964.06;4828889;29;20026;-77
2021/04/19 03:17:37;;;;;;;4.82;4.53;;;;;;;4.51;56.96;100967.22;4844498;29;20085;-77
2021/04/19 03:20:08;;;;;;;4.35;4.15;;;;;;;4.48;57.26;100970.34;4821994;29;20061;-78
2021/04/19 03:22:38;;;;;;;4.25;3.47;;;;;;;4.43;56.95;100978.28;4828599;29;20038;-77
2021/04/19 03:25:05;;;;;;;4.50;4.18;;;;;;;4.40;57.78;100978.72;4835655;29;20030;-78
2021/04/19 03:27:32;;;;;;;3.42;3.13;;;;;;;4.29;57.13;100978.31;4853084;29;20034;-79
2021/04/19 03:30:00;;;;;;;3.08;2.88;;;;;;;4.23;57.25;100973.72;4849958;29;20085;-80
2021/04/19 03:32:31;;;;;;;4.32;4.03;;;;;;;4.20;58.13;100976.84;4861594;29;20034;-77
2021/04/19 03:34:59;;;;;;;4.43;3.95;;;;;;;4.15;57.81;100976.66;4848036;29;20010;-77
2021/04/19 03:37:28;;;;;;;4.00;3.72;;;;;;;4.04;58.04;100964.59;4845020;29;20034;-78
2021/04/19 03:39:58;;;;;;;6.03;3.67;;;;;;;4.02;57.36;100967.50;4858395;29;20033;-77
2021/04/19 03:42:33;;;;;;;3.25;2.88;;;;;;;3.99;57.25;100973.34;4837124;29;20030;-78
2021/04/19 03:45:02;;;;;;;4.10;3.75;;;;;;;3.89;57.82;100964.81;4841349;29;20493;-78
2021/04/19 03:47:32;;;;;;;3.08;2.88;;;;;;;3.93;57.95;100973.31;4821728;29;20048;-79
2021/04/19 03:50:03;;;;;;;4.15;3.85;;;;;;;3.94;58.34;100975.84;4829531;29;20094;-78
2021/04/19 03:52:33;;;;;;;6.30;5.72;;;;;;;3.89;57.38;100972.91;4846646;29;20034;-78
2021/04/19 03:55:02;;;;;;;2.83;2.63;;;;;;;3.92;58.21;100971.69;4843192;29;20393;-77
2021/04/19 03:57:33;;;;;;;4.35;4.07;;;;;;;3.90;58.45;100969.19;4817306;29;20023;-77
2021/04/19 04:00:06;;;;;;;2.33;2.22;;;;;;;3.87;58.36;100964.19;4848522;29;20038;-77
2021/04/19 04:02:36;;;;;;;3.22;3.03;;;;;;;3.79;57.65;100950.88;4834253;29;20041;-77
2021/04/19 04:05:02;;;;;;;3.05;2.85;;;;;;;3.72;57.86;100948.16;4824464;29;20061;-78
2021/04/19 04:07:30;;;;;;;3.92;3.63;;;;;;;3.79;57.74;100970.63;4825848;29;20034;-77
2021/04/19 04:09:56;;;;;;;3.03;2.85;;;;;;;3.70;57.73;100958.34;4832723;29;20030;-78
2021/04/19 04:12:21;;;;;;;4.13;3.30;;;;;;;3.65;58.63;100950.88;4828493;29;20033;-78
2021/04/19 04:14:57;;;;;;;5.32;4.95;;;;;;;3.59;58.33;100946.28;4848505;29;20045;-79
2021/04/19 04:17:23;;;;;;;;;;;;;;;3.61;58.04;100955.03;4815744;29;20117;-79
2021/04/19 04:19:48;;;;;;;6.50;4.97;;;;;;;3.46;58.06;100941.69;4839513;29;19920;-79
2021/04/19 04:22:18;;;;;;;5.57;4.05;;;;;;;3.46;58.10;100940.84;4835617;29;20120;-79
2021/04/19 04:24:45;;;;;;;4.45;4.13;;;;;;;3.46;58.25;100947.09;4849291;29;20125;-80
2021/04/19 04:27:11;;;;;;;3.55;3.08;;;;;;;3.41;58.02;100954.16;4830351;29;20082;-80
2021/04/19 04:29:36;;;;;;;6.00;2.70;;;;;;;3.41;58.18;100951.47;4827833;29;20039;-79
2021/04/19 04:32:03;;;;;;;2.35;2.25;;;;;;;3.31;59.06;100944.59;4818908;29;20120;-78
2021/04/19 04:34:28;;;;;;;8.05;3.58;;;;;;;3.31;58.66;100950.00;4831131;29;20045;-78
2021/04/19 04:36:54;;;;;;;3.88;3.40;;;;;;;3.30;59.09;100950.19;4850704;29;20049;-78
2021/04/19 04:39:19;;;;;;;1.85;1.75;;;;;;;3.32;58.64;100948.13;4832945;29;20118;-79
2021/04/19 04:41:48;;;;;;;2.85;2.75;;;;;;;3.28;59.53;100954.97;4850644;29;20041;-78
2021/04/19 04:44:24;;;;;;;3.00;2.75;;;;;;;3.21;58.13;100946.00;4831779;29;20030;-79
2021/04/19 04:47:39;;;;;;;3.03;2.83;;;;;;;3.23;59.52;100942.06;4839994;29;20069;-79
2021/04/19 04:50:19;;;;;;;4.65;4.25;;;;;;;3.26;59.28;100952.47;4787397;29;20139;-78
2021/04/19 04:53:08;;;;;;;2.33;2.22;;;;;;;3.17;58.92;100937.50;4776396;30;20062;-77
2021/04/19 04:55:36;;;;;;;3.67;2.58;;;;;;;3.17;59.24;100942.03;4821668;29;20065;-77
2021/04/19 04:58:02;;;;;;;2.10;2.00;;;;;;;3.25;58.87;100953.50;4830073;29;20114;-78
2021/04/19 05:00:32;;;;;;;2.67;2.40;;;;;;;3.14;59.42;100937.91;4828387;29;20062;-80
2021/04/19 05:02:58;;;;;;;1.80;1.70;;;;;;;3.22;59.83;100944.97;4831542;29;20108;-79
2021/04/19 05:05:25;;;;;;;1.98;1.88;;;;;;;3.25;59.33;100945.38;4851682;29;20018;-80
2021/04/19 05:07:52;;;;;;;9.30;4.65;;;;;;;3.22;59.18;100950.38;4834703;29;20116;-80
2021/04/19 05:10:18;;;;;;;4.22;3.85;;;;;;;3.25;60.61;100956.19;4846416;29;20054;-80
2021/04/19 05:12:46;;;;;;;4.53;3.83;;;;;;;3.26;59.32;100955.16;4825803;29;20338;-78
2021/04/19 05:15:15;;;;;;;4.25;3.95;;;;;;;3.24;59.37;100959.97;4848415;29;20034;-77
2021/04/19 05:17:43;;;;;;;6.25;3.55;;;;;;;3.15;59.45;100947.66;4836744;29;20041;-78
2021/04/19 05:20:10;;;;;;;3.13;2.92;;;;;;;3.25;59.80;100961.59;4836823;29;20400;-80
2021/04/19 05:22:41;;;;;;;3.40;3.10;;;;;;;3.21;60.63;100949.53;4852350;29;20033;-78
2021/04/19 05:25:07;;;;;;;3.92;3.72;;;;;;;3.20;61.14;100953.28;4825828;29;20013;-79
2021/04/19 05:27:33;;;;;;;2.80;2.65;;;;;;;3.21;60.95;100954.13;4849551;29;20486;-79
2021/04/19 05:29:59;;;;;;;2.47;2.38;;;;;;;3.14;61.02;100943.31;4833165;29;20026;-81
2021/04/19 05:32:27;;;;;;;3.40;2.30;;;;;;;3.22;60.65;100956.63;4845624;29;20703;-79
2021/04/19 05:34:52;;;;;;;2.53;2.42;;;;;;;3.28;61.04;100965.78;4835372;29;20120;-79
2021/04/19 05:37:18;;;;;;;3.15;2.95;;;;;;;3.16;61.21;100952.03;4848174;29;20070;-80
2021/04/19 05:39:45;;;;;;;2.80;2.60;;;;;;;3.21;61.00;100949.53;4831194;29;20052;-78
2021/04/19 05:42:13;;;;;;;3.03;2.83;;;;;;;3.25;61.16;100961.59;4845650;29;20038;-77
2021/04/19 05:44:42;;;;;;;3.70;3.17;;;;;;;3.26;60.88;100963.28;4830532;29;20029;-78
2021/04/19 05:47:12;;;;;;;2.97;2.80;;;;;;;3.22;61.22;100956.63;4840515;29;20041;-78
2021/04/19 05:49:37;;;;;;;2.80;2.70;;;;;;;3.24;60.97;100948.28;4830202;29;20046;-78
2021/04/19 05:52:06;;;;;;;2.85;2.65;;;;;;;3.37;61.84;100959.13;4815442;29;20038;-76
2021/04/19 05:54:37;;;;;;;2.03;1.92;;;;;;;3.49;61.18;100962.09;4824132;29;20029;-75
2021/04/19 05:57:02;;;;;;;2.20;2.10;;;;;;;3.61;61.73;100957.72;4825419;29;20054;-75
2021/04/19 05:59:36;;;;;;;2.13;2.03;;;;;;;3.72;61.91;100960.84;4843300;29;20042;-79
2021/04/19 06:02:04;;;;;;;2.33;2.22;;;;;;;3.69;61.43;100945.03;4845202;29;20046;-79
2021/04/19 06:04:39;;;;;;;1.95;1.85;;;;;;;3.89;60.61;100948.56;4843400;29;20034;-77
2021/04/19 06:07:19;;;;;;;2.38;2.28;;;;;;;4.05;60.85;100955.44;4825089;29;20030;-78
2021/04/19 06:09:50;;;;;;;1.33;1.30;;;;;;;4.09;60.85;100947.72;4828984;29;20118;-78
2021/04/19 06:12:24;;;;;;;1.02;1.00;;;;;;;4.29;61.30;100955.81;4847035;29;20030;-76
2021/04/19 06:14:52;;;;;;;2.28;2.17;;;;;;;4.43;61.24;100959.34;4826621;29;20026;-76
2021/04/19 06:17:22;;;;;;;3.13;2.88;;;;;;;4.51;60.28;100956.38;4825086;29;20384;-77
2021/04/19 06:19:50;;;;;;;2.90;2.80;;;;;;;4.59;60.32;100967.00;4846561;29;20086;-78
2021/04/19 06:22:18;;;;;;;1.90;1.80;;;;;;;4.58;60.56;100957.19;4827054;29;20030;-78
2021/04/19 06:24:48;;;;;;;1.17;1.17;;;;;;;4.78;60.63;100969.84;4831956;29;20571;-78
2021/04/19 06:27:24;;;;;;;1.25;1.25;;;;;;;4.78;59.57;100948.19;4812953;29;20042;-77
2021/04/19 06:29:50;;;;;;;0.82;0.82;;;;;;;4.93;60.26;100959.56;4842183;29;21568;-79
2021/04/19 06:32:18;;;;;;;0.63;0.63;;;;;;;5.12;59.52;100962.41;4831912;29;20127;-77
2021/04/19 06:34:44;;;;;;;1.08;1.08;;;;;;;5.17;59.49;100957.13;4845668;29;20038;-77
2021/04/19 06:37:09;;;;;;;1.08;1.08;;;;;;;5.18;59.16;100931.69;4833432;29;20029;-76
2021/04/19 06:39:40;;;;;;;0.85;0.85;;;;;;;5.32;58.97;100938.72;4829924;29;20065;-77
2021/04/19 06:42:06;;;;;;;1.40;1.40;;;;;;;5.56;59.21;100960.66;4850257;29;20022;-78
2021/04/19 06:44:47;;;;;;;0.90;0.90;;;;;;;5.55;59.11;100953.59;4828150;29;20034;-76
2021/04/19 06:47:17;;;;;;;1.13;1.13;;;;;;;5.62;58.90;100943.50;4844526;29;20030;-73
2021/04/19 06:52:39;;;;;;;1.60;1.50;;;;;;;5.97;59.34;100959.31;4789733;29;20465;-76
2021/04/19 06:55:36;;;;;;;2.40;2.30;;;;;;;6.13;58.59;100954.38;4839327;29;20052;-78
2021/04/19 06:58:02;;;;;;;1.65;1.55;;;;;;;6.20;58.22;100950.53;4847105;29;20026;-76
2021/04/19 07:00:30;;;;;;;1.90;1.80;;;;;;;6.32;58.22;100950.63;4823207;29;20131;-77
2021/04/19 07:03:03;;;;;;;0.93;0.93;;;;;;;6.56;58.02;100964.41;4830165;29;20045;-79
2021/04/19 07:05:38;;;;;;;1.13;1.13;;;;;;;6.66;57.44;100959.28;4836620;29;20048;-78
2021/04/19 07:08:28;;;;;;;1.58;1.48;;;;;;;6.87;57.49;100970.72;4835386;29;20083;-77
2021/04/19 07:11:28;;;;;;;;;;;;;;;;;;;;;
2021/04/19 07:14:11;;;;;;;;;;;;;;;;;;;;;
2021/04/19 07:16:47;;;;;;;1.25;1.25;;;;;;;7.17;56.50;100959.88;4843202;29;20037;-76
2021/04/19 07:19:13;;;;;;;3.30;3.10;;;;;;;7.11;56.21;100950.75;4844585;29;20038;-79
2021/04/19 07:21:39;;;;;;;2.45;1.80;;;;;;;7.02;56.68;100946.69;4829099;29;20055;-76
2021/04/19 07:24:20;;;;;;;;;;;;;;;;;;;;;
2021/04/19 07:26:49;;;;;;;2.05;1.95;;;;;;;7.16;56.13;100942.72;4845905;29;20418;-77
2021/04/19 07:29:14;;;;;;;1.77;1.67;;;;;;;7.46;56.48;100958.22;4845657;29;20030;-77
2021/04/19 07:31:50;;;;;;;2.67;2.58;;;;;;;7.55;56.52;100946.97;4837031;29;20037;-78
2021/04/19 07:34:17;;;;;;;3.60;3.40;;;;;;;7.58;56.11;100933.75;4855142;29;20036;-79
2021/04/19 07:36:58;;;;;;;4.35;3.95;;;;;;;7.72;56.31;100955.31;4839447;29;20029;-78
2021/04/19 07:39:25;;;;;;;3.00;2.90;;;;;;;7.74;56.20;100954.03;4856730;29;20040;-79
2021/04/19 07:42:08;;;;;;;2.78;2.67;;;;;;;7.82;55.88;100950.94;4864201;29;20038;-77
2021/04/19 07:44:50;;;;;;;2.53;2.28;;;;;;;7.92;56.13;100955.00;4829522;29;20034;-77
2021/04/19 07:47:29;;;;;;;2.13;2.03;;;;;;;8.04;55.56;100955.81;4842600;29;20120;-79
2021/04/19 07:49:58;;;;;;;4.32;3.92;;;;;;;8.14;56.33;100961.50;4842791;29;20029;-78
2021/04/19 07:52:29;;;;;;;3.53;3.33;;;;;;;8.25;56.13;100953.56;4843076;29;20041;-77
2021/04/19 07:55:16;;;;;;;4.43;4.22;;;;;;;8.38;56.23;100948.72;4845883;29;20036;-78
2021/04/19 07:57:45;;;;;;;5.47;5.18;;;;;;;8.51;56.89;100953.13;4844244;29;20091;-78
2021/04/19 08:00:26;;;;;;;3.65;3.45;;;;;;;8.65;56.75;100961.03;4842461;29;20033;-79
2021/04/19 08:03:08;;;;;;;5.43;5.07;;;;;;;8.73;56.18;100945.13;4844039;29;20138;-78
2021/04/19 08:05:49;;;;;;;5.30;5.00;;;;;;;8.83;57.00;100949.13;4848694;29;20029;-78
2021/04/19 08:08:17;;;;;;;7.43;6.72;;;;;;;9.05;56.52;100954.75;4846045;29;20855;-76
2021/04/19 08:10:44;;;;;;;7.75;7.05;;;;;;;9.03;57.03;100937.78;4835717;29;20175;-78
2021/04/19 08:13:10;;;;;;;8.23;6.53;;;;;;;9.25;56.81;100957.03;4832198;29;20063;-77
2021/04/19 08:15:38;;;;;;;6.97;6.28;;;;;;;9.25;56.61;100941.47;4833299;29;20038;-78
2021/04/19 08:18:15;;;;;;;5.72;5.43;;;;;;;9.51;56.30;100943.88;4847650;29;20065;-79
2021/04/19 08:20:52;;;;;;;6.65;6.15;;;;;;;9.67;55.11;100950.41;4835473;29;20030;-78
2021/04/19 08:23:19;;;;;;;5.78;5.30;;;;;;;9.79;55.01;100940.22;4830642;29;20032;-77
2021/04/19 08:25:55;;;;;;;6.63;6.05;;;;;;;9.85;53.90;100928.31;4832101;29;20030;-78
2021/04/19 08:28:27;;;;;;;9.15;6.28;;;;;;;10.02;54.67;100932.97;4826645;29;20370;-76
2021/04/19 08:31:08;;;;;;;5.72;5.35;;;;;;;10.19;53.92;100927.44;4830966;29;20022;-78
2021/04/19 08:33:36;;;;;;;5.93;5.03;;;;;;;10.49;53.05;100932.56;4841583;29;20030;-78
2021/04/19 08:36:07;;;;;;;6.45;5.90;;;;;;;10.91;52.72;100944.84;4816825;29;20161;-78
2021/04/19 08:38:34;;;;;;;5.30;4.68;;;;;;;11.17;52.79;100940.50;4826715;29;20038;-78
2021/04/19 08:41:00;;;;;;;6.00;5.50;;;;;;;11.49;51.23;100939.69;4828685;29;20108;-77
2021/04/19 08:43:32;;;;;;;4.70;4.43;;;;;;;11.95;51.10;100926.41;4829802;29;20043;-78
2021/04/19 08:45:58;;;;;;;5.78;5.40;;;;;;;12.51;50.46;100944.31;4843667;29;20032;-77
2021/04/19 08:48:29;;;;;;;4.45;4.15;;;;;;;12.87;49.94;100930.75;4804168;29;20030;-78
2021/04/19 08:51:03;;;;;;;3.40;3.20;;;;;;;13.51;50.06;100945.22;4829030;29;20030;-77
2021/04/19 08:53:29;;;;;;;2.53;2.43;;;;;;;14.24;49.30;100946.84;4827878;29;20517;-79
2021/04/19 08:55:58;;;;;;;4.68;4.28;;;;;;;14.97;48.41;100946.34;4831161;29;20269;-78
2021/04/19 08:58:26;;;;;;;2.67;2.47;;;;;;;15.82;47.28;100935.34;4828015;29;20031;-77
2021/04/19 09:00:55;;;;;;;1.95;1.85;;;;;;;16.71;46.43;100950.72;4828923;29;20038;-79
2021/04/19 09:03:21;;;;;;;2.00;1.90;;;;;;;17.31;45.40;100936.41;4845517;29;20053;-76
2021/04/19 09:05:49;;;;;;;2.20;2.10;;;;;;;17.92;44.70;100940.16;4842846;29;20030;-78
2021/04/19 09:08:51;;;;;;;2.20;2.10;;;;;;;18.48;43.36;100940.25;4830912;29;20258;-78
2021/04/19 09:11:36;;;;;;;3.58;2.65;;;;;;;18.92;41.65;100933.28;4839135;29;20030;-77
2021/04/19 09:14:15;;;;;;;3.40;3.20;;;;;;;19.40;41.26;100959.66;4845596;29;20025;-78
2021/04/19 09:16:41;;;;;;;2.58;2.38;;;;;;;19.94;40.10;100937.56;4844181;29;20097;-77
2021/04/19 09:19:07;;;;;;;3.67;3.38;;;;;;;20.56;38.80;100956.19;4828404;29;20030;-79
2021/04/19 09:21:37;;;;;;;10.05;7.03;;;;;;;21.09;35.57;100951.63;4846943;29;20041;-78
2021/04/19 09:24:04;;;;;;;3.88;3.67;;;;;;;21.68;36.88;100953.13;4847358;29;20549;-80
2021/04/19 09:26:51;;;;;;;5.57;5.10;;;;;;;22.75;32.17;100958.94;4830452;29;20474;-78
2021/04/19 09:29:25;;;;;;;5.35;4.95;;;;;;;23.04;30.45;100959.25;4823342;29;20366;-79
2021/04/19 09:32:00;;;;;;;3.00;2.78;;;;;;;23.58;30.83;100961.34;4844670;29;20030;-77
2021/04/19 09:34:47;;;;;;;4.72;4.32;;;;;;;24.39;29.53;100957.06;4828681;29;20650;-78
2021/04/19 09:37:18;;;;;;;4.32;4.07;;;;;;;24.76;27.43;100961.91;4842928;29;20037;-78
2021/04/19 09:40:02;;;;;;;;;;;;;;;;;;;;;
2021/04/19 09:42:53;;;;;;;3.90;3.55;;;;;;;25.49;24.64;100968.56;4843091;29;20125;-78
2021/04/19 09:45:41;;;;;;;3.58;3.22;;;;;;;25.99;23.66;100951.53;4845022;29;20537;-81
2021/04/19 09:48:29;;;;;;;3.80;3.55;;;;;;;26.14;23.35;100953.59;4847110;29;20069;-79
2021/04/19 09:51:02;;;;;;;5.43;4.03;;;;;;;26.58;22.33;100944.31;4823843;29;20070;-78
2021/04/19 09:53:28;;;;;;;7.80;5.90;;;;;;;26.16;19.82;100945.63;4852579;29;20022;-78
2021/04/19 09:56:22;;;;;;;;;;;;;;;;;;;;;
2021/04/19 09:58:53;;;;;;;4.13;3.67;;;;;;;26.77;21.34;100935.16;4844130;29;20780;-78
2021/04/19 10:01:26;;;;;;;9.23;4.90;;;;;;;27.33;20.37;100957.28;4831639;29;20110;-77
2021/04/19 10:03:56;;;;;;;9.05;6.55;;;;;;;27.38;18.96;100952.56;4845222;29;20048;-77
2021/04/19 10:06:24;;;;;;;4.97;4.55;;;;;;;27.41;19.85;100951.81;4824010;29;20033;-79
2021/04/19 10:09:01;;;;;;;2.17;1.98;;;;;;;27.87;20.68;100940.72;4832138;29;20022;-77
2021/04/19 10:11:37;;;;;;;4.22;4.03;;;;;;;28.68;19.89;100945.41;4833742;29;20030;-77
2021/04/19 10:14:08;;;;;;;3.50;2.97;;;;;;;29.14;19.38;100943.66;4845326;29;20058;-77
2021/04/19 10:16:48;;;;;;;3.30;3.10;;;;;;;29.51;18.63;100946.59;4833468;29;20057;-81
2021/04/19 10:19:27;;;;;;;3.97;3.28;;;;;;;29.60;18.18;100949.13;4846961;29;20083;-77
2021/04/19 10:22:05;;;;;;;4.30;3.78;;;;;;;29.64;18.12;100935.84;4832846;29;20042;-79
2021/04/19 10:24:32;;;;;;;5.20;3.22;;;;;;;29.86;17.26;100927.69;4848306;29;20469;-78
2021/04/19 10:27:00;;;;;;;4.05;3.75;;;;;;;29.94;16.40;100933.00;4831885;29;20038;-79
2021/04/19 10:29:29;;;;;;;2.85;2.65;;;;;;;30.18;17.35;100939.28;4815332;29;20034;-78
2021/04/19 10:32:00;;;;;;;3.25;2.17;;;;;;;31.07;17.49;100929.91;4832207;29;20026;-77
2021/04/19 10:34:36;;;;;;;4.20;2.55;;;;;;;31.67;16.64;100936.25;4850797;29;20030;-79
2021/04/19 10:37:06;;;;;;;5.00;4.63;;;;;;;31.90;15.12;100927.41;4847646;29;20034;-78
2021/04/19 10:39:34;;;;;;;4.32;4.03;;;;;;;31.77;14.08;100937.47;4852483;29;20030;-79
2021/04/19 10:42:05;;;;;;;4.25;3.92;;;;;;;31.50;14.34;100927.28;4849897;29;20041;-78
2021/04/19 10:44:44;;;;;;;4.07;3.83;;;;;;;31.55;14.07;100936.59;4835383;29;20393;-81
2021/04/19 10:47:13;;;;;;;2.22;2.03;;;;;;;31.53;14.67;100934.16;4852773;29;20046;-80
2021/04/19 10:49:51;;;;;;;;;;;;;;;;;;;;;
2021/04/19 10:52:17;;;;;;;1.73;1.63;;;;;;;31.98;14.74;100931.06;4852683;29;20117;-79
2021/04/19 10:54:44;;;;;;;1.83;1.73;;;;;;;32.35;14.33;100933.53;4833672;29;20050;-82
2021/04/19 10:57:24;;;;;;;3.08;1.85;;;;;;;33.03;13.72;100923.34;4836530;29;20041;-82
2021/04/19 10:59:52;;;;;;;2.30;2.20;;;;;;;33.06;13.22;100925.41;4849860;29;20030;-82
2021/04/19 11:02:22;;;;;;;2.35;2.25;;;;;;;33.13;13.33;100927.38;4845199;29;20462;-79
2021/04/19 11:04:49;;;;;;;2.40;2.20;;;;;;;33.01;12.84;100914.47;4846635;29;20034;-82
2021/04/19 11:07:25;;;;;;;2.78;2.55;;;;;;;33.34;13.10;100920.88;4830708;29;20039;-80
2021/04/19 11:10:11;;;;;;;1.65;1.38;;;;;;;34.22;13.69;100920.75;4827722;29;20058;-82
2021/04/19 11:12:37;;;;;;;1.10;1.00;;;;;;;34.92;13.44;100919.72;4847786;29;20389;-79
2021/04/19 11:15:26;;;;;;;3.35;3.15;;;;;;;35.62;11.90;100909.94;4834421;29;20042;-81
2021/04/19 11:17:51;;;;;;;3.10;2.25;;;;;;;35.33;11.73;100911.56;4850082;29;20045;-81
2021/04/19 11:20:30;;;;;;;1.00;1.00;;;;;;;35.25;12.21;100903.13;4830297;29;20034;-81
2021/04/19 11:22:58;;;;;;;0.93;0.40;;;;;;;35.74;12.62;100899.22;4852203;29;20389;-77
2021/04/19 11:25:31;;;;;;;3.88;0.95;;;;;;;36.36;11.42;100904.78;4853223;29;20063;-83
2021/04/19 11:28:21;;;;;;;0.88;0.88;;;;;;;36.82;11.39;100900.31;4827285;29;20037;-81
2021/04/19 11:30:48;;;;;;;4.63;3.05;;;;;;;36.53;9.93;100895.13;4835189;29;20050;-82
2021/04/19 11:33:25;;;;;;;1.75;1.65;;;;;;;36.14;10.43;100899.41;4834706;29;20018;-82
2021/04/19 11:35:58;;;;;;;2.05;0.98;;;;;;;36.08;11.26;100896.25;4843552;29;20068;-84
2021/04/19 11:38:25;;;;;;;1.55;1.52;;;;;;;36.30;10.67;100890.22;4833246;29;20046;-83
2021/04/19 11:40:53;;;;;;;0.85;0.85;;;;;;;36.41;10.67;100887.22;4823233;29;20027;-83
2021/04/19 11:43:26;;;;;;;3.97;1.20;;;;;;;36.77;10.52;100887.38;4829600;29;20056;-83
2021/04/19 11:45:57;;;;;;;1.05;1.05;;;;;;;36.78;10.15;100891.03;4835738;29;20117;-84
2021/04/19 11:48:23;;;;;;;1.02;0.93;;;;;;;36.47;10.43;100882.63;4834747;29;20030;-74
2021/04/19 11:50:48;;;;;;;1.95;1.85;;;;;;;36.47;9.93;100877.72;4844386;29;20036;-75
2021/04/19 11:53:24;;;;;;;2.78;2.67;;;;;;;36.21;9.79;100882.22;4844473;29;20034;-76
2021/04/19 11:55:53;;;;;;;1.33;0.90;;;;;;;35.68;10.21;100873.31;4847842;29;20052;-75
2021/04/19 11:58:22;;;;;;;1.80;1.70;;;;;;;35.60;10.30;100878.28;4823230;29;20033;-75
2021/04/19 12:00:48;;;;;;;1.90;1.77;;;;;;;35.82;10.53;100877.97;4830623;29;20034;-76
2021/04/19 12:03:17;;;;;;;1.50;1.40;;;;;;;35.92;10.23;100865.66;4847489;29;20060;-77
2021/04/19 12:05:45;;;;;;;1.42;1.42;;;;;;;35.59;10.15;100856.78;4845448;29;20127;-73